Terminal Aerodrome Forecast
Issued by NWS Springfield, MO

Home | Current Version | Previous Version | Text Only | Print | Product List | Glossary On
Versions: 1 2 3 4 5 6 7 8 9 10 11 12 13 14 15 16
000
FTUS43 KSGF 240520
TAFSGF
TAF
KSGF 240520Z 2406/2506 18010KT P6SM BKN150
     FM241000 18010KT P6SM SCT150 WS020/21040KT
     FM241300 21014KT P6SM SCT200
     FM241600 21015KT P6SM SCT050
     FM250100 20006KT P6SM SKC=

USA.gov is the U.S. government's official web portal to all federal, state and local government web resources and services.